Time;durP1;ratioP1;P1;durP2;ratioP2;P2;SDS_P1;SDS_P2;PMS_P1;PMS_P2;Temp;Humidity;BMP_temperature;BMP_pressure;BME280_temperature;BME280_humidity;BME280_pressure;Samples;Min_cycle;Max_cycle;Signal;HPM_P1;HPM_P2
2022/08/05 00:00:16;;;;;;;0.82;0.50;;;23.70;62.30;;;;;;5113553;28;20035;-73
2022/08/05 00:02:43;;;;;;;0.90;0.32;;;23.70;62.30;;;;;;5113443;28;20036;-73
2022/08/05 00:05:09;;;;;;;0.80;0.50;;;23.70;62.30;;;;;;5113774;28;20490;-73
2022/08/05 00:07:34;;;;;;;0.70;0.40;;;23.70;62.40;;;;;;5113399;28;20132;-73
2022/08/05 00:10:00;;;;;;;1.83;0.40;;;23.70;62.40;;;;;;5113658;28;20038;-73
2022/08/05 00:12:25;;;;;;;0.98;0.40;;;23.70;62.40;;;;;;5113639;28;20038;-74
2022/08/05 00:14:51;;;;;;;0.52;0.20;;;23.70;62.40;;;;;;5113668;28;20048;-74
2022/08/05 00:17:19;;;;;;;0.88;0.20;;;23.70;62.40;;;;;;5114685;28;20441;-73
2022/08/05 00:19:45;;;;;;;0.68;0.30;;;23.70;62.40;;;;;;5113029;28;20040;-73
2022/08/05 00:22:11;;;;;;;1.42;0.32;;;23.70;62.40;;;;;;5112974;28;20055;-74
2022/08/05 00:24:37;;;;;;;1.13;0.30;;;23.60;62.40;;;;;;5114243;28;20384;-74
2022/08/05 00:27:02;;;;;;;1.45;0.25;;;23.60;62.40;;;;;;5113075;28;20126;-73
2022/08/05 00:29:28;;;;;;;1.52;0.20;;;23.70;62.50;;;;;;5113200;28;20036;-74
2022/08/05 00:31:54;;;;;;;0.75;0.20;;;23.60;62.40;;;;;;5114433;28;20127;-74
2022/08/05 00:34:20;;;;;;;1.17;0.30;;;23.60;62.40;;;;;;5114188;28;20037;-74
2022/08/05 00:36:46;;;;;;;1.10;0.45;;;23.60;62.40;;;;;;5112892;28;20126;-73
2022/08/05 00:39:11;;;;;;;1.60;0.40;;;23.70;62.50;;;;;;5113051;28;20070;-73
2022/08/05 00:41:37;;;;;;;1.55;0.30;;;23.60;62.50;;;;;;5112671;28;20079;-73
2022/08/05 00:44:03;;;;;;;1.40;0.40;;;23.60;62.50;;;;;;5112623;28;20088;-73
2022/08/05 00:46:29;;;;;;;0.75;0.32;;;23.60;62.50;;;;;;5112626;28;20499;-73
2022/08/05 00:48:57;;;;;;;0.63;0.25;;;23.60;62.50;;;;;;5112583;28;20032;-73
2022/08/05 00:51:23;;;;;;;0.77;0.35;;;23.60;62.60;;;;;;5112857;28;20082;-73
2022/08/05 00:53:49;;;;;;;0.95;0.43;;;23.60;62.60;;;;;;5113721;28;20407;-73
2022/08/05 00:56:16;;;;;;;0.70;0.30;;;23.60;62.50;;;;;;5112525;28;20092;-73
2022/08/05 00:58:42;;;;;;;1.08;0.40;;;23.60;62.60;;;;;;5113646;28;20116;-73
2022/08/05 01:01:09;;;;;;;0.80;0.20;;;23.60;62.60;;;;;;5112518;28;20364;-73
2022/08/05 01:03:36;;;;;;;1.10;0.20;;;23.60;62.60;;;;;;5112253;28;20043;-73
2022/08/05 01:06:02;;;;;;;1.67;0.65;;;23.60;62.60;;;;;;5112462;28;20038;-73
2022/08/05 01:08:27;;;;;;;0.57;0.20;;;23.60;62.60;;;;;;5112513;28;20403;-73
2022/08/05 01:10:58;;;;;;;1.45;0.50;;;23.60;62.60;;;;;;5113396;28;20097;-73
2022/08/05 01:13:26;;;;;;;;;;;23.60;62.60;;;;;;5112766;28;20439;-73
2022/08/05 01:15:57;;;;;;;0.70;0.30;;;23.60;62.70;;;;;;5113325;28;19915;-73
2022/08/05 01:18:28;;;;;;;1.40;0.30;;;23.60;62.70;;;;;;5112025;28;20475;-73
2022/08/05 01:29:30;;;;;;;0.98;0.32;;;23.50;62.60;;;;;;5130410;27;20358;-74
2022/08/05 01:32:01;;;;;;;0.82;0.30;;;23.50;62.70;;;;;;5129259;28;20047;-73
2022/08/05 01:37:15;;;;;;;1.70;0.50;;;23.50;62.60;;;;;;5130340;27;20407;-73
2022/08/05 01:39:42;;;;;;;0.70;0.30;;;23.50;62.70;;;;;;5129074;28;20096;-73
2022/08/05 01:42:11;;;;;;;0.57;0.30;;;23.50;62.70;;;;;;5146199;27;20035;-73
2022/08/05 01:44:38;;;;;;;1.77;0.30;;;23.50;62.70;;;;;;5130312;27;20432;-74
2022/08/05 01:47:05;;;;;;;0.77;0.30;;;23.50;62.70;;;;;;5128711;27;20064;-73
2022/08/05 01:49:32;;;;;;;0.70;0.30;;;23.50;62.70;;;;;;5129087;28;20027;-73
2022/08/05 01:52:01;;;;;;;2.10;0.80;;;23.50;62.70;;;;;;5128767;28;20478;-73
2022/08/05 01:54:49;;;;;;;1.02;0.30;;;23.50;62.70;;;;;;5129022;28;20093;-73
2022/08/05 01:57:22;;;;;;;0.98;0.38;;;23.50;62.70;;;;;;5128560;28;20051;-73
2022/08/05 01:59:50;;;;;;;0.70;0.30;;;23.50;62.70;;;;;;5128636;28;20505;-73
2022/08/05 02:02:18;;;;;;;1.00;0.30;;;23.50;62.70;;;;;;5128793;28;20458;-73
2022/08/05 02:04:45;;;;;;;0.73;0.30;;;23.50;62.70;;;;;;5128860;28;20031;-73
2022/08/05 02:07:10;;;;;;;0.65;0.20;;;23.50;62.70;;;;;;5128429;28;20046;-73
2022/08/05 02:09:36;;;;;;;0.82;0.30;;;23.50;62.70;;;;;;5128764;28;20032;-73
2022/08/05 02:14:51;;;;;;;0.88;0.30;;;23.50;62.70;;;;;;5130329;27;20410;-73
2022/08/05 02:17:27;;;;;;;0.52;0.30;;;23.50;62.70;;;;;;5129265;28;20043;-73
2022/08/05 02:20:00;;;;;;;1.10;0.30;;;23.50;62.70;;;;;;5129221;28;20093;-73
2022/08/05 02:22:33;;;;;;;0.55;0.30;;;23.50;62.70;;;;;;5129175;28;20043;-73
2022/08/05 02:25:04;;;;;;;0.65;0.30;;;23.50;62.70;;;;;;5130126;27;20110;-73
2022/08/05 02:27:36;;;;;;;0.90;0.30;;;23.50;62.70;;;;;;5128797;28;20185;-73
2022/08/05 02:30:03;;;;;;;1.23;0.35;;;23.50;62.70;;;;;;5112207;28;20498;-73
2022/08/05 02:32:31;;;;;;;1.15;0.30;;;23.40;62.60;;;;;;5128595;28;20046;-73
2022/08/05 02:35:02;;;;;;;0.82;0.30;;;23.50;62.70;;;;;;5130026;27;20036;-73
2022/08/05 02:37:31;;;;;;;0.60;0.30;;;23.50;62.80;;;;;;5128744;27;20146;-73
2022/08/05 02:39:57;;;;;;;0.65;0.20;;;23.40;62.70;;;;;;5128870;28;20089;-74
2022/08/05 02:42:22;;;;;;;0.52;0.20;;;23.40;62.70;;;;;;5128464;28;20465;-73
2022/08/05 02:44:49;;;;;;;0.88;0.30;;;23.40;62.70;;;;;;5129796;28;20035;-73
2022/08/05 02:47:15;;;;;;;0.82;0.30;;;23.50;62.80;;;;;;5128413;28;20047;-73
2022/08/05 02:49:44;;;;;;;0.70;0.45;;;23.40;62.70;;;;;;5128372;28;20043;-73
2022/08/05 02:52:14;;;;;;;1.38;0.30;;;23.40;62.70;;;;;;5128340;28;20043;-73
2022/08/05 02:54:41;;;;;;;0.88;0.35;;;23.40;62.80;;;;;;5128541;28;20040;-73
2022/08/05 02:57:10;;;;;;;0.90;0.30;;;23.40;62.70;;;;;;5128280;28;20046;-73
2022/08/05 02:59:37;;;;;;;0.80;0.20;;;23.40;62.80;;;;;;5128232;28;20074;-73
2022/08/05 03:02:03;;;;;;;0.65;0.25;;;23.40;62.70;;;;;;5128167;28;20039;-73
2022/08/05 03:04:31;;;;;;;0.73;0.22;;;23.40;62.80;;;;;;5128332;28;20039;-73
2022/08/05 03:06:58;;;;;;;1.52;0.30;;;23.40;62.80;;;;;;5128300;28;20470;-73
2022/08/05 03:09:24;;;;;;;0.90;0.30;;;23.40;62.80;;;;;;5128171;28;20040;-73
2022/08/05 03:11:50;;;;;;;0.65;0.22;;;23.40;62.80;;;;;;5128320;28;20441;-73
2022/08/05 03:14:15;;;;;;;0.70;0.40;;;23.40;62.70;;;;;;5127464;28;20103;-73
2022/08/05 03:16:41;;;;;;;0.93;0.30;;;23.40;62.70;;;;;;5128047;28;20076;-73
2022/08/05 03:19:07;;;;;;;0.77;0.30;;;23.40;62.70;;;;;;5129104;28;20027;-73
2022/08/05 03:21:32;;;;;;;0.70;0.35;;;23.40;62.70;;;;;;5127979;28;20040;-73
2022/08/05 03:23:59;;;;;;;0.98;0.20;;;23.40;62.70;;;;;;5126596;28;20540;-73
2022/08/05 03:26:25;;;;;;;0.75;0.30;;;23.40;62.80;;;;;;5114046;28;20387;-73
2022/08/05 03:28:50;;;;;;;0.43;0.28;;;23.40;62.70;;;;;;5113970;28;20043;-73
2022/08/05 03:31:16;;;;;;;0.70;0.20;;;23.40;62.70;;;;;;5114182;28;20043;-73
2022/08/05 03:33:44;;;;;;;0.70;0.30;;;23.40;62.80;;;;;;5113839;28;20127;-73
2022/08/05 03:36:09;;;;;;;0.88;0.35;;;23.40;62.80;;;;;;5113766;28;20035;-73
2022/08/05 03:38:40;;;;;;;0.85;0.30;;;23.30;62.70;;;;;;5113733;28;20040;-73
2022/08/05 03:41:06;;;;;;;0.60;0.20;;;23.30;62.70;;;;;;5115172;28;20449;-73
2022/08/05 03:43:32;;;;;;;1.17;0.30;;;23.30;62.70;;;;;;5113859;28;20065;-73
2022/08/05 03:45:58;;;;;;;0.70;0.30;;;23.30;62.70;;;;;;5113623;28;20051;-73
2022/08/05 03:48:23;;;;;;;0.60;0.30;;;23.30;62.70;;;;;;5114925;28;20035;-73
2022/08/05 03:51:12;;;;;;;1.08;0.40;;;23.30;62.70;;;;;;5113792;28;20040;-73
2022/08/05 03:53:47;;;;;;;1.45;0.60;;;23.30;62.70;;;;;;5113559;28;20053;-73
2022/08/05 03:56:38;;;;;;;0.70;0.30;;;23.30;62.70;;;;;;5113462;28;20039;-73
2022/08/05 03:59:09;;;;;;;0.55;0.30;;;23.30;62.80;;;;;;5113542;28;20107;-73
2022/08/05 04:01:39;;;;;;;1.05;0.20;;;23.30;62.80;;;;;;5114556;28;20039;-73
2022/08/05 04:04:06;;;;;;;0.40;0.20;;;23.30;62.80;;;;;;5113593;28;20070;-73
2022/08/05 04:06:33;;;;;;;0.68;0.20;;;23.30;62.80;;;;;;5113441;28;20415;-73
2022/08/05 04:09:00;;;;;;;1.48;0.30;;;23.30;62.80;;;;;;5113271;28;20051;-73
2022/08/05 04:11:27;;;;;;;1.10;0.35;;;23.30;62.80;;;;;;5113156;28;20050;-73
2022/08/05 04:13:54;;;;;;;0.60;0.30;;;23.30;62.80;;;;;;5112806;28;20059;-73
2022/08/05 04:16:20;;;;;;;0.95;0.35;;;23.30;62.80;;;;;;5113143;28;20036;-73
2022/08/05 04:18:45;;;;;;;0.57;0.30;;;23.30;62.80;;;;;;5113213;28;20039;-73
2022/08/05 04:21:11;;;;;;;1.38;0.40;;;23.30;62.90;;;;;;5112916;28;20380;-73
2022/08/05 04:23:38;;;;;;;0.85;0.20;;;23.30;62.90;;;;;;5112937;28;20135;-73
2022/08/05 04:26:04;;;;;;;0.57;0.20;;;23.30;62.80;;;;;;5113085;28;20097;-73
2022/08/05 04:28:30;;;;;;;1.05;0.25;;;23.20;62.80;;;;;;5113149;28;20031;-73
2022/08/05 04:30:56;;;;;;;0.47;0.20;;;23.20;62.80;;;;;;5112897;28;20044;-73
2022/08/05 04:33:22;;;;;;;0.77;0.40;;;23.20;62.80;;;;;;5112818;28;20100;-73
2022/08/05 04:35:48;;;;;;;1.27;0.22;;;23.20;62.80;;;;;;5112152;28;20475;-73
2022/08/05 04:38:14;;;;;;;1.27;0.20;;;23.20;62.80;;;;;;5113386;28;20046;-73
2022/08/05 04:40:40;;;;;;;0.90;0.20;;;23.20;62.80;;;;;;5112640;28;20061;-73
2022/08/05 04:43:06;;;;;;;0.47;0.28;;;23.20;62.90;;;;;;5112755;28;20376;-73
2022/08/05 04:45:33;;;;;;;1.95;0.38;;;23.20;62.80;;;;;;5112467;28;20486;-73
2022/08/05 04:48:14;;;;;;;0.65;0.30;;;23.20;62.80;;;;;;5112549;28;20048;-73
2022/08/05 04:50:44;;;;;;;0.70;0.30;;;23.20;62.80;;;;;;5112716;28;20129;-73
2022/08/05 04:53:11;;;;;;;1.10;0.40;;;23.20;62.80;;;;;;5112436;28;20036;-72
2022/08/05 04:55:37;;;;;;;0.65;0.30;;;23.20;62.80;;;;;;5112579;28;20110;-73
2022/08/05 04:58:07;;;;;;;0.82;0.30;;;23.20;62.80;;;;;;5112199;28;20040;-73
2022/08/05 05:00:34;;;;;;;1.48;0.30;;;23.20;62.80;;;;;;5112137;28;20110;-73
2022/08/05 05:03:00;;;;;;;0.50;0.20;;;23.20;62.80;;;;;;5113555;28;20035;-73
2022/08/05 05:05:26;;;;;;;0.60;0.20;;;23.20;62.80;;;;;;5112414;28;20531;-73
2022/08/05 05:07:53;;;;;;;0.60;0.25;;;23.20;62.80;;;;;;5112020;28;20118;-73
2022/08/05 05:10:18;;;;;;;0.45;0.20;;;23.20;62.80;;;;;;5112037;28;20046;-72
2022/08/05 05:12:44;;;;;;;0.38;0.20;;;23.20;62.80;;;;;;5094730;28;20047;-73
2022/08/05 05:15:10;;;;;;;0.57;0.20;;;23.20;62.80;;;;;;5112169;28;20050;-73
2022/08/05 05:17:38;;;;;;;1.30;0.30;;;23.20;62.80;;;;;;5112284;28;20043;-73
2022/08/05 05:20:05;;;;;;;0.93;0.30;;;23.20;62.80;;;;;;5111856;28;20042;-73
2022/08/05 05:22:31;;;;;;;0.85;0.20;;;23.20;62.80;;;;;;5111960;28;20386;-73
2022/08/05 05:24:56;;;;;;;0.80;0.20;;;23.20;62.80;;;;;;5111812;28;20119;-73
2022/08/05 05:27:22;;;;;;;1.05;0.30;;;23.20;62.80;;;;;;5112977;28;20047;-73
2022/08/05 05:29:47;;;;;;;0.93;0.20;;;23.20;62.80;;;;;;5111556;28;20065;-73
2022/08/05 05:32:13;;;;;;;0.60;0.20;;;23.20;62.70;;;;;;5111847;28;20040;-73
2022/08/05 05:34:39;;;;;;;0.43;0.20;;;23.20;62.70;;;;;;5111491;28;20463;-73
2022/08/05 05:37:04;;;;;;;0.95;0.28;;;23.20;62.70;;;;;;5111789;28;20387;-73
2022/08/05 05:39:30;;;;;;;0.65;0.30;;;23.20;62.80;;;;;;5112677;28;20114;-73
2022/08/05 05:41:55;;;;;;;0.85;0.30;;;23.20;62.80;;;;;;5112827;28;20108;-73
2022/08/05 05:44:21;;;;;;;0.60;0.30;;;23.20;62.70;;;;;;5111524;28;20043;-73
2022/08/05 05:46:47;;;;;;;0.70;0.50;;;23.10;62.70;;;;;;5111340;28;20067;-73
2022/08/05 05:49:12;;;;;;;0.70;0.30;;;23.10;62.70;;;;;;5111076;28;20088;-73
2022/08/05 05:51:38;;;;;;;0.47;0.20;;;23.20;62.70;;;;;;5112729;28;20044;-73
2022/08/05 05:54:03;;;;;;;0.70;0.30;;;23.10;62.70;;;;;;5111174;28;20584;-73
2022/08/05 05:56:30;;;;;;;0.52;0.30;;;23.10;62.70;;;;;;5111272;28;20040;-73
2022/08/05 05:58:56;;;;;;;1.25;0.30;;;23.20;62.70;;;;;;5111207;28;20043;-73
2022/08/05 06:01:21;;;;;;;1.02;0.30;;;23.10;62.70;;;;;;5112405;28;20040;-73
2022/08/05 06:03:47;;;;;;;0.45;0.20;;;23.10;62.70;;;;;;5111149;28;20126;-73
2022/08/05 06:06:13;;;;;;;0.70;0.20;;;23.10;62.70;;;;;;5111372;28;20093;-73
2022/08/05 06:08:38;;;;;;;1.17;0.20;;;23.10;62.70;;;;;;5111349;28;20364;-73
2022/08/05 06:11:05;;;;;;;0.60;0.30;;;23.20;62.70;;;;;;5111088;28;20039;-73
2022/08/05 06:13:31;;;;;;;0.63;0.20;;;23.10;62.60;;;;;;5110778;28;20104;-73
2022/08/05 06:15:56;;;;;;;1.10;0.30;;;23.10;62.70;;;;;;5111177;28;20047;-73
2022/08/05 06:18:22;;;;;;;0.77;0.30;;;23.10;62.60;;;;;;5111270;28;20043;-73
2022/08/05 06:20:47;;;;;;;0.45;0.20;;;23.10;62.60;;;;;;5112324;28;20046;-73
2022/08/05 06:23:13;;;;;;;0.75;0.30;;;23.10;62.60;;;;;;5111038;28;20118;-73
2022/08/05 06:25:39;;;;;;;0.82;0.40;;;23.10;62.70;;;;;;5111165;28;20097;-73
2022/08/05 06:28:04;;;;;;;0.85;0.28;;;23.10;62.60;;;;;;5110906;28;20050;-73
2022/08/05 06:30:30;;;;;;;0.82;0.20;;;23.10;62.60;;;;;;5111119;28;20039;-73
2022/08/05 06:32:56;;;;;;;0.65;0.20;;;23.10;62.60;;;;;;5110779;28;20117;-73
2022/08/05 06:35:21;;;;;;;1.02;0.30;;;23.10;62.60;;;;;;5110886;28;20079;-73
2022/08/05 06:37:47;;;;;;;0.90;0.38;;;23.10;62.70;;;;;;5110895;28;20039;-73
2022/08/05 06:40:14;;;;;;;0.80;0.20;;;23.10;62.60;;;;;;5112030;28;20062;-73
2022/08/05 06:42:40;;;;;;;1.25;0.35;;;23.10;62.60;;;;;;5111057;28;20039;-73
2022/08/05 06:45:06;;;;;;;0.50;0.30;;;23.10;62.60;;;;;;5112169;28;20505;-73
2022/08/05 06:47:32;;;;;;;1.40;0.40;;;23.10;62.60;;;;;;5111873;28;20035;-73
2022/08/05 06:49:58;;;;;;;0.45;0.20;;;23.10;62.60;;;;;;5112052;28;20035;-73
2022/08/05 06:52:23;;;;;;;0.52;0.20;;;23.10;62.60;;;;;;5110877;28;20044;-73
2022/08/05 06:54:49;;;;;;;0.73;0.30;;;23.10;62.60;;;;;;5110682;28;20080;-73
2022/08/05 06:57:17;;;;;;;0.60;0.30;;;23.10;62.50;;;;;;5110906;28;20148;-73
2022/08/05 06:59:42;;;;;;;0.77;0.30;;;23.10;62.60;;;;;;5111777;28;20048;-73
2022/08/05 07:02:09;;;;;;;0.75;0.20;;;23.10;62.50;;;;;;5097776;28;20042;-73
2022/08/05 07:04:35;;;;;;;0.70;0.20;;;23.10;62.60;;;;;;5114537;28;20051;-73
2022/08/05 07:07:00;;;;;;;0.52;0.20;;;23.10;62.50;;;;;;5115702;28;20035;-73
2022/08/05 07:09:26;;;;;;;0.40;0.20;;;23.10;62.50;;;;;;5114399;28;20032;-73
2022/08/05 07:11:54;;;;;;;0.60;0.45;;;23.10;62.50;;;;;;5114521;28;20122;-73
2022/08/05 07:17:05;;;;;;;0.60;0.30;;;23.10;62.40;;;;;;5111967;28;20070;-73
2022/08/05 07:19:31;;;;;;;0.52;0.20;;;23.10;62.40;;;;;;5113823;28;20074;-74
2022/08/05 07:21:57;;;;;;;0.68;0.20;;;23.10;62.50;;;;;;5113611;28;20066;-73
2022/08/05 07:24:23;;;;;;;0.50;0.30;;;23.10;62.40;;;;;;5113289;28;20044;-73
2022/08/05 07:26:49;;;;;;;0.32;0.20;;;23.10;62.40;;;;;;5097093;28;20035;-73
2022/08/05 07:29:15;;;;;;;0.82;0.30;;;23.10;62.40;;;;;;5114067;28;20173;-73
2022/08/05 07:31:41;;;;;;;0.43;0.20;;;23.10;62.40;;;;;;5114157;28;20066;-73
2022/08/05 07:34:07;;;;;;;0.60;0.25;;;23.10;62.40;;;;;;5113931;28;20040;-73
2022/08/05 07:36:33;;;;;;;1.10;0.20;;;23.10;62.40;;;;;;5113912;28;20070;-73
2022/08/05 07:39:00;;;;;;;0.68;0.25;;;23.10;62.30;;;;;;5115054;28;20028;-73
2022/08/05 07:41:26;;;;;;;0.63;0.30;;;23.10;62.30;;;;;;5113806;28;20039;-73
2022/08/05 07:43:52;;;;;;;0.70;0.30;;;23.10;62.30;;;;;;5114964;28;20035;-73
2022/08/05 07:46:18;;;;;;;0.60;0.20;;;23.10;62.40;;;;;;5113900;28;20063;-73
2022/08/05 07:48:44;;;;;;;0.70;0.20;;;23.10;62.30;;;;;;5113597;28;20036;-73
2022/08/05 07:51:09;;;;;;;0.70;0.38;;;23.10;62.30;;;;;;5113888;28;20091;-73
2022/08/05 07:53:35;;;;;;;0.55;0.20;;;23.10;62.30;;;;;;5113392;28;20096;-73
2022/08/05 07:56:02;;;;;;;0.50;0.30;;;23.10;62.20;;;;;;5113770;28;20071;-73
2022/08/05 07:58:28;;;;;;;0.52;0.30;;;23.10;62.20;;;;;;5113690;28;20039;-73
2022/08/05 08:00:54;;;;;;;1.08;0.30;;;23.10;62.20;;;;;;5113374;28;20058;-73
2022/08/05 08:03:19;;;;;;;0.63;0.60;;;23.10;62.20;;;;;;5113357;28;20040;-74
2022/08/05 08:05:45;;;;;;;0.40;0.20;;;23.10;62.20;;;;;;5113571;28;20035;-73
2022/08/05 08:08:11;;;;;;;0.70;0.30;;;23.10;62.10;;;;;;5113241;28;20050;-73
2022/08/05 08:10:37;;;;;;;0.73;0.30;;;23.10;62.00;;;;;;5113377;28;20440;-73
2022/08/05 08:13:04;;;;;;;0.73;0.20;;;23.10;62.10;;;;;;5112796;28;20050;-73
2022/08/05 08:15:30;;;;;;;0.50;0.20;;;23.10;62.00;;;;;;5113371;28;20043;-73
2022/08/05 08:17:56;;;;;;;0.73;0.20;;;23.10;62.00;;;;;;5113329;28;20267;-73
2022/08/05 08:20:23;;;;;;;0.52;0.20;;;23.10;62.70;;;;;;5113174;28;20118;-73
2022/08/05 08:22:51;;;;;;;0.60;0.30;;;23.10;62.00;;;;;;5113263;28;20051;-73
2022/08/05 08:25:18;;;;;;;0.60;0.20;;;23.10;61.90;;;;;;5112881;28;20051;-73
2022/08/05 08:27:43;;;;;;;1.15;0.20;;;23.10;61.90;;;;;;5113145;28;20071;-73
2022/08/05 08:30:10;;;;;;;0.88;0.20;;;23.10;61.80;;;;;;5112970;28;20495;-73
2022/08/05 08:32:36;;;;;;;0.55;0.30;;;23.10;61.80;;;;;;5112929;28;20079;-73
2022/08/05 08:35:03;;;;;;;1.55;0.30;;;23.10;61.80;;;;;;5112931;28;20132;-73
2022/08/05 08:37:29;;;;;;;0.68;0.20;;;23.10;62.40;;;;;;5112995;28;20469;-73
2022/08/05 08:39:55;;;;;;;0.30;0.20;;;23.10;61.60;;;;;;5112872;28;20039;-73
2022/08/05 08:42:21;;;;;;;0.47;0.20;;;23.20;61.70;;;;;;5112569;28;20394;-73
2022/08/05 08:44:47;;;;;;;0.40;0.25;;;23.10;61.60;;;;;;5112748;28;20364;-73
2022/08/05 08:47:14;;;;;;;0.47;0.20;;;23.10;61.60;;;;;;5112416;28;20042;-73
2022/08/05 08:49:44;;;;;;;1.02;0.20;;;23.10;61.50;;;;;;5113689;28;20568;-73
2022/08/05 08:52:13;;;;;;;0.60;0.30;;;23.20;62.30;;;;;;5112652;28;20070;-73
2022/08/05 08:54:39;;;;;;;0.60;0.20;;;23.20;61.40;;;;;;5112159;28;20100;-73
2022/08/05 08:57:06;;;;;;;1.10;0.20;;;23.20;61.40;;;;;;5112593;28;20035;-73
2022/08/05 08:59:34;;;;;;;0.70;0.20;;;23.20;61.40;;;;;;5112234;28;20035;-73
2022/08/05 09:02:05;;;;;;;0.80;0.20;;;23.20;61.40;;;;;;5112208;28;20046;-73
2022/08/05 09:04:35;;;;;;;0.60;0.25;;;23.20;61.40;;;;;;5112384;28;20085;-73
2022/08/05 09:07:00;;;;;;;0.60;0.20;;;23.20;62.00;;;;;;5112089;28;20482;-73
2022/08/05 09:09:26;;;;;;;1.67;0.20;;;23.20;61.20;;;;;;5112102;28;20036;-73
2022/08/05 09:11:52;;;;;;;0.30;0.20;;;23.20;61.20;;;;;;5112005;28;20048;-73
2022/08/05 09:14:18;;;;;;;0.47;0.20;;;23.20;61.20;;;;;;5111702;28;20051;-73
2022/08/05 09:16:44;;;;;;;0.60;0.20;;;23.20;61.10;;;;;;5112083;28;20391;-73
2022/08/05 09:19:10;;;;;;;0.43;0.20;;;23.20;61.10;;;;;;5112156;28;20039;-73
2022/08/05 09:21:36;;;;;;;0.30;0.13;;;23.20;61.10;;;;;;5111563;28;20044;-73
2022/08/05 09:24:04;;;;;;;1.23;0.20;;;23.20;61.10;;;;;;5111314;28;20043;-73
2022/08/05 09:26:30;;;;;;;0.28;0.20;;;23.20;61.00;;;;;;5111703;28;20054;-73
2022/08/05 09:29:03;;;;;;;0.82;0.20;;;23.20;61.00;;;;;;5111989;28;20035;-73
2022/08/05 09:31:29;;;;;;;1.02;0.30;;;23.20;60.90;;;;;;5112819;28;20449;-73
2022/08/05 09:33:59;;;;;;;0.82;0.30;;;23.20;60.90;;;;;;5111562;28;20498;-73
2022/08/05 09:36:49;;;;;;;0.73;0.20;;;23.30;60.80;;;;;;5111826;28;20040;-73
2022/08/05 09:39:16;;;;;;;1.63;0.20;;;23.20;60.60;;;;;;5111773;28;20050;-73
2022/08/05 09:44:43;;;;;;;0.43;0.20;;;23.20;60.70;;;;;;5089436;28;20179;-73
2022/08/05 09:47:12;;;;;;;0.77;0.20;;;23.30;60.60;;;;;;5088349;28;20109;-73
2022/08/05 09:49:41;;;;;;;0.77;0.20;;;23.20;60.40;;;;;;5088369;28;20043;-73
2022/08/05 09:57:46;;;;;;;0.50;0.20;;;23.30;60.20;;;;;;5089432;28;20417;-73
2022/08/05 10:02:54;;;;;;;0.90;0.20;;;23.30;60.10;;;;;;5089441;28;20417;-73
2022/08/05 10:05:24;;;;;;;0.38;0.10;;;23.40;60.00;;;;;;5089495;28;20040;-73
2022/08/05 10:07:59;;;;;;;0.50;0.40;;;23.40;59.80;;;;;;5088103;28;20040;-73
2022/08/05 10:10:44;;;;;;;0.57;0.20;;;23.40;59.70;;;;;;5089400;28;20048;-73
2022/08/05 10:13:11;;;;;;;0.40;0.20;;;23.40;59.50;;;;;;5087914;28;20036;-73
2022/08/05 10:15:39;;;;;;;0.80;0.25;;;23.40;59.50;;;;;;5088310;28;20506;-73
2022/08/05 10:18:21;;;;;;;0.55;0.17;;;23.40;59.40;;;;;;5088086;28;20040;-73
2022/08/05 10:20:54;;;;;;;0.47;0.20;;;23.40;59.40;;;;;;5087886;28;20115;-74
2022/08/05 10:23:23;;;;;;;1.08;0.20;;;23.40;59.40;;;;;;5088034;28;20361;-73
2022/08/05 10:25:49;;;;;;;0.30;0.10;;;23.40;59.00;;;;;;5089070;28;20036;-74
2022/08/05 10:28:15;;;;;;;0.75;0.20;;;23.40;58.80;;;;;;5089008;28;20127;-73
2022/08/05 10:30:41;;;;;;;0.40;0.20;;;23.40;58.80;;;;;;5087690;28;20041;-73
2022/08/05 10:33:07;;;;;;;1.05;0.20;;;23.40;58.70;;;;;;5087635;28;20041;-73
2022/08/05 10:35:34;;;;;;;0.60;0.10;;;23.40;58.50;;;;;;5087638;28;20055;-74
2022/08/05 10:38:01;;;;;;;0.30;0.20;;;23.40;58.60;;;;;;5087795;28;20036;-73
2022/08/05 10:40:33;;;;;;;0.50;0.20;;;23.40;58.20;;;;;;5087629;28;20051;-73
2022/08/05 10:43:06;;;;;;;0.38;0.10;;;23.40;58.20;;;;;;5087417;28;20051;-73
2022/08/05 10:45:34;;;;;;;0.50;0.20;;;23.40;58.40;;;;;;5104440;28;20046;-73
2022/08/05 10:48:36;;;;;;;0.77;0.17;;;23.40;58.20;;;;;;5087655;28;20438;-74
2022/08/05 10:56:23;;;;;;;0.70;0.10;;;23.40;57.80;;;;;;5152646;27;1173483;-73
2022/08/05 11:12:43;;;;;;;0.82;0.10;;;23.50;57.90;;;;;;5130333;27;20915;-73
2022/08/05 11:17:51;;;;;;;0.30;0.20;;;23.40;57.20;;;;;;5130345;27;20383;-73
2022/08/05 11:23:33;;;;;;;0.73;0.20;;;23.40;56.60;;;;;;5130371;27;20193;-74
2022/08/05 11:28:44;;;;;;;0.47;0.10;;;23.40;56.70;;;;;;5130341;27;20411;-73
2022/08/05 11:36:46;;;;;;;0.93;0.20;;;23.40;56.60;;;;;;5130294;27;20402;-74
2022/08/05 11:39:35;;;;;;;0.50;0.10;;;23.40;56.40;;;;;;5129265;28;20105;-74
2022/08/05 11:42:01;;;;;;;0.32;0.10;;;23.40;56.40;;;;;;5146250;27;20063;-74
2022/08/05 11:44:35;;;;;;;0.68;0.20;;;23.40;56.20;;;;;;5146231;27;20035;-74
2022/08/05 11:47:01;;;;;;;0.93;0.10;;;23.40;55.80;;;;;;5128797;28;20053;-74
2022/08/05 11:49:27;;;;;;;0.50;0.10;;;23.40;55.90;;;;;;5128844;28;20031;-74
2022/08/05 11:51:52;;;;;;;0.32;0.10;;;23.40;55.90;;;;;;5128666;28;20096;-74
2022/08/05 11:54:23;;;;;;;0.20;0.10;;;23.40;55.70;;;;;;5128939;28;20035;-74
2022/08/05 11:56:51;;;;;;;2.80;0.20;;;23.40;55.60;;;;;;5129920;27;20082;-73
2022/08/05 11:59:20;;;;;;;0.20;0.10;;;23.40;55.50;;;;;;5128994;28;20040;-74
2022/08/05 12:02:04;;;;;;;0.17;0.10;;;23.40;55.40;;;;;;5128842;28;20449;-73
2022/08/05 12:07:17;;;;;;;0.57;0.20;;;23.40;55.00;;;;;;5130313;27;20435;-74
2022/08/05 12:09:47;;;;;;;0.52;0.10;;;23.40;55.10;;;;;;5128995;28;20036;-74
2022/08/05 12:12:21;;;;;;;0.98;0.10;;;23.40;55.10;;;;;;5129200;27;20035;-73
2022/08/05 12:14:47;;;;;;;0.40;0.17;;;23.40;55.00;;;;;;5129231;27;20437;-73
2022/08/05 12:17:14;;;;;;;0.50;0.10;;;23.40;55.00;;;;;;5128662;28;20039;-73
2022/08/05 12:19:45;;;;;;;0.20;0.10;;;23.30;54.80;;;;;;5128847;27;20031;-74
2022/08/05 12:22:11;;;;;;;0.20;0.10;;;23.30;54.70;;;;;;5129007;28;20035;-74
2022/08/05 12:24:42;;;;;;;0.35;0.10;;;23.40;54.80;;;;;;5129049;28;20050;-74
2022/08/05 12:27:09;;;;;;;0.20;0.08;;;23.40;54.70;;;;;;5128581;28;20074;-74
2022/08/05 12:29:35;;;;;;;0.40;0.10;;;23.40;54.50;;;;;;5128976;28;20052;-74
2022/08/05 12:32:01;;;;;;;0.10;0.10;;;23.40;54.60;;;;;;5129812;27;20044;-74
2022/08/05 12:34:29;;;;;;;0.65;0.10;;;23.40;54.40;;;;;;5128562;28;20471;-73
2022/08/05 12:36:59;;;;;;;1.17;0.10;;;23.40;54.30;;;;;;5128486;28;20047;-73
2022/08/05 12:39:26;;;;;;;0.45;0.10;;;23.30;54.10;;;;;;5128826;28;20100;-73
2022/08/05 12:41:58;;;;;;;0.30;0.13;;;23.40;54.10;;;;;;5145821;27;20050;-73
2022/08/05 12:44:25;;;;;;;1.35;0.10;;;23.30;53.90;;;;;;5128620;28;20040;-73
2022/08/05 12:46:53;;;;;;;1.02;0.10;;;23.30;53.80;;;;;;5128196;28;20073;-73
2022/08/05 12:49:19;;;;;;;0.40;0.08;;;23.40;53.90;;;;;;5128284;27;20043;-74
2022/08/05 12:51:48;;;;;;;0.50;0.10;;;23.40;54.00;;;;;;5128290;28;20036;-73
2022/08/05 12:54:23;;;;;;;0.40;0.10;;;23.40;53.90;;;;;;5128417;27;20035;-73
2022/08/05 12:56:53;;;;;;;0.75;0.10;;;23.40;53.70;;;;;;5128145;28;20124;-74
2022/08/05 12:59:23;;;;;;;0.20;0.10;;;23.40;53.80;;;;;;5127980;28;20639;-73
2022/08/05 13:04:42;;;;;;;0.40;0.10;;;23.40;53.60;;;;;;5130281;27;20361;-73
2022/08/05 13:07:11;;;;;;;0.75;0.10;;;23.40;53.60;;;;;;5129302;27;20068;-79
2022/08/05 13:09:39;;;;;;;0.40;0.10;;;23.30;53.50;;;;;;5128908;28;20497;-73
2022/08/05 13:12:08;;;;;;;0.28;0.10;;;23.40;53.50;;;;;;5129188;28;20047;-73
2022/08/05 13:14:39;;;;;;;0.20;0.10;;;23.40;53.50;;;;;;5129113;28;20039;-74
2022/08/05 13:17:26;;;;;;;0.55;0.10;;;23.40;53.40;;;;;;5129157;28;20052;-73
2022/08/05 13:20:10;;;;;;;0.38;0.10;;;23.40;53.30;;;;;;5128601;27;20078;-74
2022/08/05 13:22:38;;;;;;;0.20;0.00;;;23.30;53.20;;;;;;5129950;27;20135;-73
2022/08/05 13:25:08;;;;;;;0.20;0.10;;;23.40;53.40;;;;;;5128696;28;20526;-74
2022/08/05 13:27:36;;;;;;;1.75;0.10;;;23.40;53.40;;;;;;5130085;27;20386;-73
2022/08/05 13:30:03;;;;;;;0.75;0.10;;;23.40;53.20;;;;;;5129893;27;20491;-74
2022/08/05 13:32:29;;;;;;;0.22;0.10;;;23.40;53.30;;;;;;5128849;28;20146;-74
2022/08/05 13:34:54;;;;;;;0.32;0.10;;;23.40;53.30;;;;;;5128379;27;20126;-73
2022/08/05 13:37:21;;;;;;;0.40;0.10;;;23.40;53.20;;;;;;5145762;27;20129;-74
2022/08/05 13:39:48;;;;;;;0.57;0.10;;;23.40;53.30;;;;;;5128343;28;20039;-74
2022/08/05 13:42:17;;;;;;;1.17;0.10;;;23.40;53.20;;;;;;5128537;28;20043;-73
2022/08/05 13:44:42;;;;;;;0.20;0.08;;;23.40;53.10;;;;;;5128283;28;20565;-73
2022/08/05 13:47:08;;;;;;;0.20;0.10;;;23.40;53.00;;;;;;5128273;28;20126;-73
2022/08/05 13:49:34;;;;;;;0.40;0.10;;;23.40;53.00;;;;;;5128071;28;20050;-74
2022/08/05 13:52:10;;;;;;;0.43;0.10;;;23.40;53.00;;;;;;5128491;28;20035;-73
2022/08/05 13:54:36;;;;;;;0.28;0.10;;;23.40;52.80;;;;;;5129331;27;20080;-73
2022/08/05 13:57:02;;;;;;;0.95;0.10;;;23.40;53.00;;;;;;5128071;28;20043;-73